sensor_id;sensor_type;location;lat;lon;timestamp;pressure;altitude;pressure_sealevel;temperature
59339;BMP280;45117;50.960;5.500;2023-05-07T00:01:20;100670.16;;;13.69
59339;BMP280;45117;50.960;5.500;2023-05-07T00:03:47;100664.34;;;13.70
59339;BMP280;45117;50.960;5.500;2023-05-07T00:06:15;100667.22;;;13.63
59339;BMP280;45117;50.960;5.500;2023-05-07T00:08:41;100669.13;;;13.63
59339;BMP280;45117;50.960;5.500;2023-05-07T00:11:07;100666.84;;;13.61
59339;BMP280;45117;50.960;5.500;2023-05-07T00:13:34;100659.47;;;13.65
59339;BMP280;45117;50.960;5.500;2023-05-07T00:16:01;100654.88;;;13.62
59339;BMP280;45117;50.960;5.500;2023-05-07T00:18:27;100659.88;;;13.64
59339;BMP280;45117;50.960;5.500;2023-05-07T00:20:54;100663.25;;;13.68
59339;BMP280;45117;50.960;5.500;2023-05-07T00:23:22;100666.72;;;13.68
59339;BMP280;45117;50.960;5.500;2023-05-07T00:25:49;100651.03;;;13.63
59339;BMP280;45117;50.960;5.500;2023-05-07T00:28:15;100660.13;;;13.69
59339;BMP280;45117;50.960;5.500;2023-05-07T00:30:44;100666.34;;;13.66
59339;BMP280;45117;50.960;5.500;2023-05-07T00:33:10;100662.41;;;13.71
59339;BMP280;45117;50.960;5.500;2023-05-07T00:35:37;100659.28;;;13.72
59339;BMP280;45117;50.960;5.500;2023-05-07T00:38:03;100665.09;;;13.71
59339;BMP280;45117;50.960;5.500;2023-05-07T00:40:31;100661.66;;;13.70
59339;BMP280;45117;50.960;5.500;2023-05-07T00:42:58;100653.13;;;13.72
59339;BMP280;45117;50.960;5.500;2023-05-07T00:45:26;100647.72;;;13.72
59339;BMP280;45117;50.960;5.500;2023-05-07T00:47:54;100641.84;;;13.77
59339;BMP280;45117;50.960;5.500;2023-05-07T00:50:20;100633.81;;;13.73
59339;BMP280;45117;50.960;5.500;2023-05-07T00:52:47;100631.13;;;13.73
59339;BMP280;45117;50.960;5.500;2023-05-07T00:55:14;100628.44;;;13.73
59339;BMP280;45117;50.960;5.500;2023-05-07T00:57:45;100629.59;;;13.72
59339;BMP280;45117;50.960;5.500;2023-05-07T01:00:12;100625.41;;;13.71
59339;BMP280;45117;50.960;5.500;2023-05-07T01:02:39;100628.19;;;13.68
59339;BMP280;45117;50.960;5.500;2023-05-07T01:05:08;100630.50;;;13.66
59339;BMP280;45117;50.960;5.500;2023-05-07T01:07:36;100631.97;;;13.70
59339;BMP280;45117;50.960;5.500;2023-05-07T01:10:04;100629.03;;;13.65
59339;BMP280;45117;50.960;5.500;2023-05-07T01:12:32;100626.25;;;13.68
59339;BMP280;45117;50.960;5.500;2023-05-07T01:15:00;100621.34;;;13.63
59339;BMP280;45117;50.960;5.500;2023-05-07T01:17:27;100622.88;;;13.64
59339;BMP280;45117;50.960;5.500;2023-05-07T01:19:53;100622.16;;;13.60
59339;BMP280;45117;50.960;5.500;2023-05-07T01:22:29;100611.31;;;13.64
59339;BMP280;45117;50.960;5.500;2023-05-07T01:24:57;100611.31;;;13.64
59339;BMP280;45117;50.960;5.500;2023-05-07T01:27:24;100604.81;;;13.61
59339;BMP280;45117;50.960;5.500;2023-05-07T01:29:51;100600.09;;;13.65
59339;BMP280;45117;50.960;5.500;2023-05-07T01:32:19;100600.94;;;13.62
59339;BMP280;45117;50.960;5.500;2023-05-07T01:34:48;100603.22;;;13.64
59339;BMP280;45117;50.960;5.500;2023-05-07T01:37:15;100606.75;;;13.61
59339;BMP280;45117;50.960;5.500;2023-05-07T01:39:44;100602.09;;;13.61
59339;BMP280;45117;50.960;5.500;2023-05-07T01:42:11;100607.50;;;13.61
59339;BMP280;45117;50.960;5.500;2023-05-07T01:44:38;100595.19;;;13.60
59339;BMP280;45117;50.960;5.500;2023-05-07T01:47:05;100609.53;;;13.57
59339;BMP280;45117;50.960;5.500;2023-05-07T01:49:32;100608.78;;;13.57
59339;BMP280;45117;50.960;5.500;2023-05-07T01:51:59;100603.00;;;13.54
59339;BMP280;45117;50.960;5.500;2023-05-07T01:54:26;100601.84;;;13.56
59339;BMP280;45117;50.960;5.500;2023-05-07T01:56:56;100601.44;;;13.57
59339;BMP280;45117;50.960;5.500;2023-05-07T01:59:22;100602.97;;;13.58
59339;BMP280;45117;50.960;5.500;2023-05-07T02:01:49;100594.91;;;13.54
59339;BMP280;45117;50.960;5.500;2023-05-07T02:04:15;100598.31;;;13.59
59339;BMP280;45117;50.960;5.500;2023-05-07T02:06:42;100600.31;;;13.54
59339;BMP280;45117;50.960;5.500;2023-05-07T02:09:08;100604.13;;;13.57
59339;BMP280;45117;50.960;5.500;2023-05-07T02:11:35;100605.31;;;13.56
59339;BMP280;45117;50.960;5.500;2023-05-07T02:14:03;100613.81;;;13.54
59339;BMP280;45117;50.960;5.500;2023-05-07T02:16:29;100620.31;;;13.57
59339;BMP280;45117;50.960;5.500;2023-05-07T02:18:56;100618.38;;;13.58
59339;BMP280;45117;50.960;5.500;2023-05-07T02:21:23;100621.06;;;13.58
59339;BMP280;45117;50.960;5.500;2023-05-07T02:23:50;100626.38;;;13.61
59339;BMP280;45117;50.960;5.500;2023-05-07T02:26:18;100625.22;;;13.62
59339;BMP280;45117;50.960;5.500;2023-05-07T02:28:44;100622.88;;;13.64
59339;BMP280;45117;50.960;5.500;2023-05-07T02:31:12;100627.91;;;13.62
59339;BMP280;45117;50.960;5.500;2023-05-07T02:33:38;100619.00;;;13.65
59339;BMP280;45117;50.960;5.500;2023-05-07T02:36:06;100621.69;;;13.65
59339;BMP280;45117;50.960;5.500;2023-05-07T02:38:33;100620.56;;;13.63
59339;BMP280;45117;50.960;5.500;2023-05-07T02:41:00;100622.50;;;13.62
59339;BMP280;45117;50.960;5.500;2023-05-07T02:43:26;100623.69;;;13.61
59339;BMP280;45117;50.960;5.500;2023-05-07T02:46:00;100622.16;;;13.60
59339;BMP280;45117;50.960;5.500;2023-05-07T02:48:28;100623.69;;;13.61
59339;BMP280;45117;50.960;5.500;2023-05-07T02:50:54;100617.97;;;13.59
59339;BMP280;45117;50.960;5.500;2023-05-07T02:53:21;100618.38;;;13.58
59339;BMP280;45117;50.960;5.500;2023-05-07T02:55:47;100624.19;;;13.56
59339;BMP280;45117;50.960;5.500;2023-05-07T02:58:14;100624.59;;;13.54
59339;BMP280;45117;50.960;5.500;2023-05-07T03:00:40;100617.44;;;13.48
59339;BMP280;45117;50.960;5.500;2023-05-07T03:03:07;100624.41;;;13.45
59339;BMP280;45117;50.960;5.500;2023-05-07T03:05:34;100620.34;;;13.37
59339;BMP280;45117;50.960;5.500;2023-05-07T03:08:01;100614.63;;;13.35
59339;BMP280;45117;50.960;5.500;2023-05-07T03:10:27;100609.66;;;13.34
59339;BMP280;45117;50.960;5.500;2023-05-07T03:12:54;100605.44;;;13.33
59339;BMP280;45117;50.960;5.500;2023-05-07T03:15:20;100607.84;;;13.27
59339;BMP280;45117;50.960;5.500;2023-05-07T03:17:47;100596.47;;;13.19
59339;BMP280;45117;50.960;5.500;2023-05-07T03:20:14;100605.66;;;13.22
59339;BMP280;45117;50.960;5.500;2023-05-07T03:22:42;100605.03;;;13.14
59339;BMP280;45117;50.960;5.500;2023-05-07T03:25:09;100602.84;;;13.09
59339;BMP280;45117;50.960;5.500;2023-05-07T03:27:36;100602.00;;;13.12
59339;BMP280;45117;50.960;5.500;2023-05-07T03:30:03;100601.28;;;13.08
59339;BMP280;45117;50.960;5.500;2023-05-07T03:32:31;100603.19;;;13.11
59339;BMP280;45117;50.960;5.500;2023-05-07T03:34:58;100605.03;;;13.14
59339;BMP280;45117;50.960;5.500;2023-05-07T03:37:24;100610.41;;;13.14
59339;BMP280;45117;50.960;5.500;2023-05-07T03:39:52;100602.06;;;13.09
59339;BMP280;45117;50.960;5.500;2023-05-07T03:42:19;100604.69;;;13.12
59339;BMP280;45117;50.960;5.500;2023-05-07T03:44:45;100599.72;;;13.11
59339;BMP280;45117;50.960;5.500;2023-05-07T03:47:12;100598.53;;;13.12
59339;BMP280;45117;50.960;5.500;2023-05-07T03:49:39;100605.88;;;13.11
59339;BMP280;45117;50.960;5.500;2023-05-07T03:52:06;100599.63;;;13.14
59339;BMP280;45117;50.960;5.500;2023-05-07T03:54:32;100604.22;;;13.17
59339;BMP280;45117;50.960;5.500;2023-05-07T03:57:00;100607.16;;;13.23
59339;BMP280;45117;50.960;5.500;2023-05-07T03:59:27;100607.16;;;13.23
59339;BMP280;45117;50.960;5.500;2023-05-07T04:01:53;100611.75;;;13.26
59339;BMP280;45117;50.960;5.500;2023-05-07T04:04:20;100611.75;;;13.26
59339;BMP280;45117;50.960;5.500;2023-05-07T04:06:46;100618.97;;;13.29
59339;BMP280;45117;50.960;5.500;2023-05-07T04:09:13;100608.56;;;13.31
59339;BMP280;45117;50.960;5.500;2023-05-07T04:11:40;100613.94;;;13.31
59339;BMP280;45117;50.960;5.500;2023-05-07T04:14:07;100619.25;;;13.35
59339;BMP280;45117;50.960;5.500;2023-05-07T04:16:34;100610.31;;;13.38
59339;BMP280;45117;50.960;5.500;2023-05-07T04:19:00;100608.28;;;13.42
59339;BMP280;45117;50.960;5.500;2023-05-07T04:21:27;100615.91;;;13.47
59339;BMP280;45117;50.960;5.500;2023-05-07T04:23:53;100613.91;;;13.51
59339;BMP280;45117;50.960;5.500;2023-05-07T04:26:20;100608.53;;;13.51
59339;BMP280;45117;50.960;5.500;2023-05-07T04:28:48;100605.31;;;13.56
59339;BMP280;45117;50.960;5.500;2023-05-07T04:31:16;100605.16;;;13.63
59339;BMP280;45117;50.960;5.500;2023-05-07T04:33:42;100614.41;;;13.62
59339;BMP280;45117;50.960;5.500;2023-05-07T04:36:09;100609.38;;;13.64
59339;BMP280;45117;50.960;5.500;2023-05-07T04:38:36;100611.31;;;13.64
59339;BMP280;45117;50.960;5.500;2023-05-07T04:41:03;100610.06;;;13.68
59339;BMP280;45117;50.960;5.500;2023-05-07T04:43:30;100609.69;;;13.66
59339;BMP280;45117;50.960;5.500;2023-05-07T04:45:56;100607.88;;;13.63
59339;BMP280;45117;50.960;5.500;2023-05-07T04:48:24;100609.69;;;13.66
59339;BMP280;45117;50.960;5.500;2023-05-07T04:50:52;100616.22;;;13.69
59339;BMP280;45117;50.960;5.500;2023-05-07T04:53:18;100619.16;;;13.74
59339;BMP280;45117;50.960;5.500;2023-05-07T04:55:45;100613.75;;;13.74
59339;BMP280;45117;50.960;5.500;2023-05-07T04:58:11;100612.94;;;13.77
59339;BMP280;45117;50.960;5.500;2023-05-07T05:00:38;100621.69;;;13.81
59339;BMP280;45117;50.960;5.500;2023-05-07T05:03:06;100621.59;;;13.85
59339;BMP280;45117;50.960;5.500;2023-05-07T05:05:34;100624.25;;;13.89
59339;BMP280;45117;50.960;5.500;2023-05-07T05:08:00;100627.25;;;13.91
59339;BMP280;45117;50.960;5.500;2023-05-07T05:10:27;100624.41;;;13.98
59339;BMP280;45117;50.960;5.500;2023-05-07T05:12:53;100620.88;;;14.01
59339;BMP280;45117;50.960;5.500;2023-05-07T05:15:20;100636.13;;;14.07
59339;BMP280;45117;50.960;5.500;2023-05-07T05:17:46;100634.47;;;14.13
59339;BMP280;45117;50.960;5.500;2023-05-07T05:20:13;100634.03;;;14.15
59339;BMP280;45117;50.960;5.500;2023-05-07T05:22:41;100650.47;;;14.21
59339;BMP280;45117;50.960;5.500;2023-05-07T05:25:08;100640.22;;;14.28
59339;BMP280;45117;50.960;5.500;2023-05-07T05:27:35;100646.22;;;14.36
59339;BMP280;45117;50.960;5.500;2023-05-07T05:30:01;100647.16;;;14.46
59339;BMP280;45117;50.960;5.500;2023-05-07T05:32:28;100639.72;;;14.50
59339;BMP280;45117;50.960;5.500;2023-05-07T05:34:54;100647.34;;;14.67
59339;BMP280;45117;50.960;5.500;2023-05-07T05:37:21;100649.78;;;14.78
59339;BMP280;45117;50.960;5.500;2023-05-07T05:39:49;100652.94;;;14.89
59339;BMP280;45117;50.960;5.500;2023-05-07T05:42:16;100659.22;;;14.99
59339;BMP280;45117;50.960;5.500;2023-05-07T05:44:42;100657.75;;;15.11
59339;BMP280;45117;50.960;5.500;2023-05-07T05:47:09;100659.28;;;15.12
59339;BMP280;45117;50.960;5.500;2023-05-07T05:49:35;100656.81;;;15.30
59339;BMP280;45117;50.960;5.500;2023-05-07T05:52:02;100661.94;;;15.53
59339;BMP280;45117;50.960;5.500;2023-05-07T05:54:28;100653.47;;;15.77
59339;BMP280;45117;50.960;5.500;2023-05-07T05:56:56;100662.97;;;16.07
59339;BMP280;45117;50.960;5.500;2023-05-07T05:59:23;100657.34;;;16.36
59339;BMP280;45117;50.960;5.500;2023-05-07T06:01:49;100656.66;;;16.57
59339;BMP280;45117;50.960;5.500;2023-05-07T06:04:16;100659.47;;;16.53
59339;BMP280;45117;50.960;5.500;2023-05-07T06:06:42;100657.03;;;16.68
59339;BMP280;45117;50.960;5.500;2023-05-07T06:09:09;100656.75;;;16.75
59339;BMP280;45117;50.960;5.500;2023-05-07T06:11:35;100662.13;;;16.88
59339;BMP280;45117;50.960;5.500;2023-05-07T06:14:03;100663.81;;;16.95
59339;BMP280;45117;50.960;5.500;2023-05-07T06:16:30;100660.59;;;17.09
59339;BMP280;45117;50.960;5.500;2023-05-07T06:18:56;100653.06;;;17.13
59339;BMP280;45117;50.960;5.500;2023-05-07T06:21:23;100657.78;;;17.22
59339;BMP280;45117;50.960;5.500;2023-05-07T06:23:49;100669.78;;;17.42
59339;BMP280;45117;50.960;5.500;2023-05-07T06:26:17;100660.28;;;17.47
59339;BMP280;45117;50.960;5.500;2023-05-07T06:28:43;100666.25;;;17.73
59339;BMP280;45117;50.960;5.500;2023-05-07T06:31:16;100666.88;;;17.77
59339;BMP280;45117;50.960;5.500;2023-05-07T06:33:43;100674.88;;;17.81
59339;BMP280;45117;50.960;5.500;2023-05-07T06:36:09;100675.19;;;17.83
59339;BMP280;45117;50.960;5.500;2023-05-07T06:38:36;100669.38;;;18.21
59339;BMP280;45117;50.960;5.500;2023-05-07T06:41:02;100679.47;;;18.29
59339;BMP280;45117;50.960;5.500;2023-05-07T06:43:29;100675.41;;;18.25
59339;BMP280;45117;50.960;5.500;2023-05-07T06:45:55;100681.91;;;18.55
59339;BMP280;45117;50.960;5.500;2023-05-07T06:48:23;100682.03;;;18.42
59339;BMP280;45117;50.960;5.500;2023-05-07T06:50:50;100679.78;;;18.40
59339;BMP280;45117;50.960;5.500;2023-05-07T06:53:16;100692.00;;;18.63
59339;BMP280;45117;50.960;5.500;2023-05-07T06:55:43;100692.59;;;18.49
59339;BMP280;45117;50.960;5.500;2023-05-07T06:58:09;100685.38;;;18.55
59339;BMP280;45117;50.960;5.500;2023-05-07T07:00:36;100688.97;;;18.52
59339;BMP280;45117;50.960;5.500;2023-05-07T07:03:02;100688.84;;;18.56
59339;BMP280;45117;50.960;5.500;2023-05-07T07:05:30;100688.22;;;18.61
59339;BMP280;45117;50.960;5.500;2023-05-07T07:07:56;100689.81;;;18.95
59339;BMP280;45117;50.960;5.500;2023-05-07T07:10:23;100694.50;;;18.94
59339;BMP280;45117;50.960;5.500;2023-05-07T07:12:50;100687.19;;;19.19
59339;BMP280;45117;50.960;5.500;2023-05-07T07:15:17;100689.38;;;19.06
59339;BMP280;45117;50.960;5.500;2023-05-07T07:17:45;100689.31;;;19.15
59339;BMP280;45117;50.960;5.500;2023-05-07T07:20:13;100691.81;;;19.36
59339;BMP280;45117;50.960;5.500;2023-05-07T07:22:40;100690.84;;;19.49
59339;BMP280;45117;50.960;5.500;2023-05-07T07:25:08;100699.19;;;20.17
59339;BMP280;45117;50.960;5.500;2023-05-07T07:27:35;100695.25;;;20.18
59339;BMP280;45117;50.960;5.500;2023-05-07T07:30:02;100697.81;;;20.36
59339;BMP280;45117;50.960;5.500;2023-05-07T07:32:29;100702.16;;;20.43
59339;BMP280;45117;50.960;5.500;2023-05-07T07:34:57;100700.63;;;20.27
59339;BMP280;45117;50.960;5.500;2023-05-07T07:37:23;100698.78;;;20.48
59339;BMP280;45117;50.960;5.500;2023-05-07T07:39:52;100704.81;;;20.96
59339;BMP280;45117;50.960;5.500;2023-05-07T07:42:18;100705.69;;;21.37
59339;BMP280;45117;50.960;5.500;2023-05-07T07:44:45;100703.09;;;21.69
59339;BMP280;45117;50.960;5.500;2023-05-07T07:47:11;100696.25;;;22.19
59339;BMP280;45117;50.960;5.500;2023-05-07T07:49:37;100699.06;;;22.56
59339;BMP280;45117;50.960;5.500;2023-05-07T07:52:04;100698.13;;;22.96
59339;BMP280;45117;50.960;5.500;2023-05-07T07:54:31;100691.38;;;23.40
59339;BMP280;45117;50.960;5.500;2023-05-07T07:56:58;100698.25;;;23.13
59339;BMP280;45117;50.960;5.500;2023-05-07T07:59:26;100691.78;;;23.16
59339;BMP280;45117;50.960;5.500;2023-05-07T08:01:53;100698.50;;;23.58
59339;BMP280;45117;50.960;5.500;2023-05-07T08:04:21;100700.25;;;23.13
59339;BMP280;45117;50.960;5.500;2023-05-07T08:06:48;100705.75;;;23.78
59339;BMP280;45117;50.960;5.500;2023-05-07T08:09:15;100704.53;;;23.25
59339;BMP280;45117;50.960;5.500;2023-05-07T08:11:42;100712.13;;;23.04
59339;BMP280;45117;50.960;5.500;2023-05-07T08:14:10;100707.53;;;23.27
59339;BMP280;45117;50.960;5.500;2023-05-07T08:16:37;100705.84;;;24.95
59339;BMP280;45117;50.960;5.500;2023-05-07T08:19:03;100699.16;;;24.62
59339;BMP280;45117;50.960;5.500;2023-05-07T08:21:30;100705.13;;;24.55
59339;BMP280;45117;50.960;5.500;2023-05-07T08:23:57;100704.88;;;24.31
59339;BMP280;45117;50.960;5.500;2023-05-07T08:26:23;100702.50;;;23.68
59339;BMP280;45117;50.960;5.500;2023-05-07T08:28:50;100713.59;;;24.13
59339;BMP280;45117;50.960;5.500;2023-05-07T08:31:17;100708.13;;;24.35
59339;BMP280;45117;50.960;5.500;2023-05-07T08:33:44;100709.13;;;24.32
59339;BMP280;45117;50.960;5.500;2023-05-07T08:36:10;100712.88;;;24.12
59339;BMP280;45117;50.960;5.500;2023-05-07T08:38:37;100718.25;;;23.84
59339;BMP280;45117;50.960;5.500;2023-05-07T08:41:05;100720.84;;;24.32
59339;BMP280;45117;50.960;5.500;2023-05-07T08:43:33;100725.34;;;24.24
59339;BMP280;45117;50.960;5.500;2023-05-07T08:46:02;100721.63;;;24.44
59339;BMP280;45117;50.960;5.500;2023-05-07T08:48:32;100726.34;;;24.77
59339;BMP280;45117;50.960;5.500;2023-05-07T08:50:59;100724.38;;;24.83
59339;BMP280;45117;50.960;5.500;2023-05-07T08:53:25;100715.88;;;24.42
59339;BMP280;45117;50.960;5.500;2023-05-07T08:55:52;100719.31;;;24.09
59339;BMP280;45117;50.960;5.500;2023-05-07T08:58:19;100719.38;;;24.26
59339;BMP280;45117;50.960;5.500;2023-05-07T09:00:46;100727.31;;;24.18
59339;BMP280;45117;50.960;5.500;2023-05-07T09:03:13;100725.34;;;24.36
59339;BMP280;45117;50.960;5.500;2023-05-07T09:05:40;100732.50;;;23.88
59339;BMP280;45117;50.960;5.500;2023-05-07T09:08:08;100733.75;;;23.98
59339;BMP280;45117;50.960;5.500;2023-05-07T09:10:35;100733.13;;;23.61
59339;BMP280;45117;50.960;5.500;2023-05-07T09:13:02;100730.50;;;23.94
59339;BMP280;45117;50.960;5.500;2023-05-07T09:15:29;100730.97;;;23.82
59339;BMP280;45117;50.960;5.500;2023-05-07T09:17:59;100738.50;;;23.92
59339;BMP280;45117;50.960;5.500;2023-05-07T09:20:26;100735.28;;;24.11
59339;BMP280;45117;50.960;5.500;2023-05-07T09:22:56;100740.94;;;23.85
59339;BMP280;45117;50.960;5.500;2023-05-07T09:25:28;100737.09;;;24.42
59339;BMP280;45117;50.960;5.500;2023-05-07T09:27:54;100737.34;;;24.88
59339;BMP280;45117;50.960;5.500;2023-05-07T09:30:21;100742.88;;;25.63
59339;BMP280;45117;50.960;5.500;2023-05-07T09:32:47;100739.69;;;26.90
59339;BMP280;45117;50.960;5.500;2023-05-07T09:35:14;100745.38;;;26.73
59339;BMP280;45117;50.960;5.500;2023-05-07T09:37:42;100740.28;;;26.53
59339;BMP280;45117;50.960;5.500;2023-05-07T09:40:20;100744.94;;;26.88
59339;BMP280;45117;50.960;5.500;2023-05-07T09:42:46;100744.13;;;26.98
59339;BMP280;45117;50.960;5.500;2023-05-07T09:45:14;100746.72;;;27.34
59339;BMP280;45117;50.960;5.500;2023-05-07T09:47:42;100741.56;;;28.45
59339;BMP280;45117;50.960;5.500;2023-05-07T09:50:12;100749.91;;;28.26
59339;BMP280;45117;50.960;5.500;2023-05-07T09:52:40;100741.69;;;27.57
59339;BMP280;45117;50.960;5.500;2023-05-07T09:55:07;100746.41;;;26.94
59339;BMP280;45117;50.960;5.500;2023-05-07T09:57:36;100747.41;;;26.97
59339;BMP280;45117;50.960;5.500;2023-05-07T10:00:03;100742.34;;;28.13
59339;BMP280;45117;50.960;5.500;2023-05-07T10:02:31;100744.09;;;28.30
59339;BMP280;45117;50.960;5.500;2023-05-07T10:04:59;100748.84;;;28.16
59339;BMP280;45117;50.960;5.500;2023-05-07T10:07:27;100749.88;;;28.45
59339;BMP280;45117;50.960;5.500;2023-05-07T10:09:54;100747.72;;;27.12
59339;BMP280;45117;50.960;5.500;2023-05-07T10:12:21;100754.63;;;27.00
59339;BMP280;45117;50.960;5.500;2023-05-07T10:14:51;100750.91;;;27.40
59339;BMP280;45117;50.960;5.500;2023-05-07T10:17:19;100746.63;;;26.96
59339;BMP280;45117;50.960;5.500;2023-05-07T10:19:46;100748.31;;;26.81
59339;BMP280;45117;50.960;5.500;2023-05-07T10:22:13;100757.81;;;26.20
59339;BMP280;45117;50.960;5.500;2023-05-07T10:24:41;100756.31;;;26.78
59339;BMP280;45117;50.960;5.500;2023-05-07T10:27:10;100758.81;;;26.22
59339;BMP280;45117;50.960;5.500;2023-05-07T10:29:45;100763.59;;;26.16
59339;BMP280;45117;50.960;5.500;2023-05-07T10:32:32;100767.97;;;25.95
59339;BMP280;45117;50.960;5.500;2023-05-07T10:35:02;100767.09;;;26.17
59339;BMP280;45117;50.960;5.500;2023-05-07T10:37:29;100769.44;;;25.55
59339;BMP280;45117;50.960;5.500;2023-05-07T10:39:56;100783.25;;;25.90
59339;BMP280;45117;50.960;5.500;2023-05-07T10:42:23;100775.81;;;25.80
59339;BMP280;45117;50.960;5.500;2023-05-07T10:44:50;100769.78;;;25.92
59339;BMP280;45117;50.960;5.500;2023-05-07T10:47:16;100773.00;;;25.27
59339;BMP280;45117;50.960;5.500;2023-05-07T10:52:45;100789.00;;;25.23
59339;BMP280;45117;50.960;5.500;2023-05-07T10:55:21;100785.06;;;24.69
59339;BMP280;45117;50.960;5.500;2023-05-07T10:57:50;100789.03;;;24.56
59339;BMP280;45117;50.960;5.500;2023-05-07T11:00:42;100791.88;;;24.03
59339;BMP280;45117;50.960;5.500;2023-05-07T11:03:09;100794.03;;;23.76
59339;BMP280;45117;50.960;5.500;2023-05-07T11:05:36;100789.06;;;23.80
59339;BMP280;45117;50.960;5.500;2023-05-07T11:08:05;100782.91;;;23.48
59339;BMP280;45117;50.960;5.500;2023-05-07T11:10:47;100786.66;;;23.14
59339;BMP280;45117;50.960;5.500;2023-05-07T11:13:15;100789.25;;;23.28
59339;BMP280;45117;50.960;5.500;2023-05-07T11:15:43;100794.38;;;23.15
59339;BMP280;45117;50.960;5.500;2023-05-07T11:18:11;100792.22;;;23.25
59339;BMP280;45117;50.960;5.500;2023-05-07T11:20:53;100792.13;;;23.14
59339;BMP280;45117;50.960;5.500;2023-05-07T11:26:47;100793.78;;;23.00
59339;BMP280;45117;50.960;5.500;2023-05-07T11:29:15;100785.88;;;23.08
59339;BMP280;45117;50.960;5.500;2023-05-07T11:31:42;100796.38;;;22.57
59339;BMP280;45117;50.960;5.500;2023-05-07T11:34:09;100791.66;;;22.84
59339;BMP280;45117;50.960;5.500;2023-05-07T11:36:42;100799.59;;;22.56
59339;BMP280;45117;50.960;5.500;2023-05-07T11:39:29;100793.00;;;22.68
59339;BMP280;45117;50.960;5.500;2023-05-07T11:41:58;100789.41;;;22.56
59339;BMP280;45117;50.960;5.500;2023-05-07T11:44:24;100805.44;;;22.23
59339;BMP280;45117;50.960;5.500;2023-05-07T11:46:51;100807.06;;;22.35
59339;BMP280;45117;50.960;5.500;2023-05-07T11:49:18;100811.00;;;22.49
59339;BMP280;45117;50.960;5.500;2023-05-07T11:51:44;100813.13;;;22.65
59339;BMP280;45117;50.960;5.500;2023-05-07T11:54:15;100813.09;;;22.39
59339;BMP280;45117;50.960;5.500;2023-05-07T11:56:42;100808.16;;;22.43
59339;BMP280;45117;50.960;5.500;2023-05-07T11:59:11;100821.84;;;22.23
59339;BMP280;45117;50.960;5.500;2023-05-07T12:01:37;100819.41;;;22.25
59339;BMP280;45117;50.960;5.500;2023-05-07T12:04:04;100820.31;;;22.62
59339;BMP280;45117;50.960;5.500;2023-05-07T12:06:31;100818.91;;;22.73
59339;BMP280;45117;50.960;5.500;2023-05-07T12:09:02;100825.69;;;22.51
59339;BMP280;45117;50.960;5.500;2023-05-07T12:11:29;100822.00;;;22.34
59339;BMP280;45117;50.960;5.500;2023-05-07T12:13:55;100830.34;;;22.45
59339;BMP280;45117;50.960;5.500;2023-05-07T12:16:23;100825.22;;;22.33
59339;BMP280;45117;50.960;5.500;2023-05-07T12:18:50;100839.66;;;22.13
59339;BMP280;45117;50.960;5.500;2023-05-07T12:21:18;100835.53;;;22.03
59339;BMP280;45117;50.960;5.500;2023-05-07T12:23:45;100843.97;;;22.19
59339;BMP280;45117;50.960;5.500;2023-05-07T12:26:12;100839.50;;;21.81
59339;BMP280;45117;50.960;5.500;2023-05-07T12:28:39;100838.75;;;22.01
59339;BMP280;45117;50.960;5.500;2023-05-07T12:31:06;100837.97;;;21.80
59339;BMP280;45117;50.960;5.500;2023-05-07T12:33:35;100840.31;;;21.87
59339;BMP280;45117;50.960;5.500;2023-05-07T12:36:04;100849.56;;;21.90
59339;BMP280;45117;50.960;5.500;2023-05-07T12:38:35;100838.06;;;21.86
59339;BMP280;45117;50.960;5.500;2023-05-07T12:41:02;100851.31;;;21.58
59339;BMP280;45117;50.960;5.500;2023-05-07T12:43:29;100844.03;;;21.70
59339;BMP280;45117;50.960;5.500;2023-05-07T12:45:57;100847.53;;;21.70
59339;BMP280;45117;50.960;5.500;2023-05-07T12:48:26;100859.59;;;21.78
59339;BMP280;45117;50.960;5.500;2023-05-07T12:50:54;100860.84;;;21.48
59339;BMP280;45117;50.960;5.500;2023-05-07T12:53:23;100851.38;;;21.63
59339;BMP280;45117;50.960;5.500;2023-05-07T12:55:51;100853.16;;;21.67
59339;BMP280;45117;50.960;5.500;2023-05-07T12:58:19;100858.06;;;21.77
59339;BMP280;45117;50.960;5.500;2023-05-07T13:00:47;100864.69;;;21.71
59339;BMP280;45117;50.960;5.500;2023-05-07T13:03:21;100860.44;;;21.55
59339;BMP280;45117;50.960;5.500;2023-05-07T13:05:48;100856.66;;;21.67
59339;BMP280;45117;50.960;5.500;2023-05-07T13:08:25;100860.56;;;21.46
59339;BMP280;45117;50.960;5.500;2023-05-07T13:10:52;100852.19;;;21.84
59339;BMP280;45117;50.960;5.500;2023-05-07T13:13:18;100859.53;;;21.93
59339;BMP280;45117;50.960;5.500;2023-05-07T13:15:45;100856.88;;;21.99
59339;BMP280;45117;50.960;5.500;2023-05-07T13:18:12;100852.38;;;21.81
59339;BMP280;45117;50.960;5.500;2023-05-07T13:20:38;100859.59;;;21.78
59339;BMP280;45117;50.960;5.500;2023-05-07T13:23:06;100860.38;;;21.84
59339;BMP280;45117;50.960;5.500;2023-05-07T13:25:34;100856.97;;;21.69
59339;BMP280;45117;50.960;5.500;2023-05-07T13:28:00;100855.34;;;21.98
59339;BMP280;45117;50.960;5.500;2023-05-07T13:30:27;100855.72;;;22.05
59339;BMP280;45117;50.960;5.500;2023-05-07T13:32:55;100857.81;;;21.60
59339;BMP280;45117;50.960;5.500;2023-05-07T13:35:22;100847.59;;;22.11
59339;BMP280;45117;50.960;5.500;2023-05-07T13:37:48;100849.41;;;21.99
59339;BMP280;45117;50.960;5.500;2023-05-07T13:40:15;100846.69;;;21.99
59339;BMP280;45117;50.960;5.500;2023-05-07T13:42:43;100838.69;;;22.16
59339;BMP280;45117;50.960;5.500;2023-05-07T13:45:10;100843.75;;;22.23
59339;BMP280;45117;50.960;5.500;2023-05-07T13:47:39;100844.19;;;21.81
59339;BMP280;45117;50.960;5.500;2023-05-07T13:50:07;100839.19;;;21.79
59339;BMP280;45117;50.960;5.500;2023-05-07T13:52:33;100843.06;;;21.73
59339;BMP280;45117;50.960;5.500;2023-05-07T13:55:00;100843.88;;;21.93
59339;BMP280;45117;50.960;5.500;2023-05-07T13:57:26;100850.84;;;21.94
59339;BMP280;45117;50.960;5.500;2023-05-07T13:59:54;100848.81;;;21.60
59339;BMP280;45117;50.960;5.500;2023-05-07T14:02:21;100854.25;;;21.89
59339;BMP280;45117;50.960;5.500;2023-05-07T14:04:47;100850.63;;;21.63